Time,TemperatureF,DewpointF,PressureIn,WindDirection,WindDirectionDegrees,WindSpeedMPH,WindSpeedGustMPH,Humidity,HourlyPrecipIn,Conditions,Clouds,dailyrainin,SoftwareType,DateUTC
2013-01-10 00:03:00,44.0,21.0,-100.00,West,275,8.0,16.0,40,0.00,,,-99.99,,2013-01-10 05:03:00,
2013-01-10 00:12:00,44.0,23.0,-100.00,WNW,290,10.0,17.0,43,0.00,,,-99.99,,2013-01-10 05:12:00,
2013-01-10 00:22:00,44.0,23.0,-100.00,WNW,290,10.0,17.0,43,0.00,,,-99.99,,2013-01-10 05:22:00,
2013-01-10 00:33:00,44.0,23.0,-100.00,NW,310,7.0,14.0,43,0.00,,,-99.99,,2013-01-10 05:33:00,
2013-01-10 00:43:00,44.0,-8.0,-100.00,SW,225,7.0,12.0,11,0.00,,,-99.99,,2013-01-10 05:43:00,
2013-01-10 00:52:00,44.0,-8.0,-100.00,SW,225,7.0,12.0,11,0.00,,,-99.99,,2013-01-10 05:52:00,
2013-01-10 01:02:00,43.0,22.0,-100.00,South,190,4.0,7.0,43,0.00,,,-99.99,,2013-01-10 06:02:00,
2013-01-10 01:12:00,43.0,22.0,-100.00,SE,125,2.0,4.0,43,0.00,,,-99.99,,2013-01-10 06:12:00,
2013-01-10 01:22:00,43.0,22.0,-100.00,SE,125,2.0,4.0,43,0.00,,,-99.99,,2013-01-10 06:22:00,
2013-01-10 01:32:00,43.0,22.0,-100.00,WNW,295,9.0,14.0,42,0.00,,,-99.99,,2013-01-10 06:32:00,
2013-01-10 01:42:00,43.0,21.0,-100.00,West,260,7.0,16.0,42,0.00,,,-99.99,,2013-01-10 06:42:00,
2013-01-10 01:52:00,43.0,21.0,-100.00,West,265,12.0,16.0,42,0.00,,,-99.99,,2013-01-10 06:52:00,
2013-01-10 02:02:00,43.0,21.0,-100.00,West,265,12.0,16.0,42,0.00,,,-99.99,,2013-01-10 07:02:00,
2013-01-10 02:12:00,43.0,20.0,-100.00,West,265,14.0,17.0,41,0.00,,,-99.99,,2013-01-10 07:12:00,
2013-01-10 02:22:00,42.0,21.0,-100.00,West,270,12.0,14.0,42,0.00,,,-99.99,,2013-01-10 07:22:00,
2013-01-10 02:32:00,42.0,21.0,-100.00,West,270,12.0,14.0,42,0.00,,,-99.99,,2013-01-10 07:32:00,
2013-01-10 02:42:00,42.0,21.0,-100.00,West,260,7.0,10.0,43,0.00,,,-99.99,,2013-01-10 07:42:00,
2013-01-10 02:52:00,42.0,-9.0,-100.00,NW,315,9.0,18.0,11,0.00,,,-99.99,,2013-01-10 07:52:00,
2013-01-10 03:02:00,42.0,-9.0,-100.00,NW,315,9.0,18.0,11,0.00,,,-99.99,,2013-01-10 08:02:00,
2013-01-10 03:12:00,41.0,21.0,-100.00,West,280,8.0,11.0,44,0.00,,,-99.99,,2013-01-10 08:12:00,
2013-01-10 03:22:00,41.0,21.0,-100.00,West,280,8.0,11.0,44,0.00,,,-99.99,,2013-01-10 08:22:00,
2013-01-10 03:32:00,41.0,21.0,-100.00,West,270,9.0,14.0,45,0.00,,,-99.99,,2013-01-10 08:32:00,
2013-01-10 03:42:00,41.0,21.0,-100.00,West,280,5.0,8.0,46,0.00,,,-99.99,,2013-01-10 08:42:00,
2013-01-10 03:52:00,41.0,22.0,-100.00,NW,325,4.0,7.0,47,0.00,,,-99.99,,2013-01-10 08:52:00,
2013-01-10 04:02:00,41.0,22.0,-100.00,NW,325,4.0,7.0,47,0.00,,,-99.99,,2013-01-10 09:02:00,
2013-01-10 04:12:00,41.0,22.0,-100.00,West,260,10.0,14.0,47,0.00,,,-99.99,,2013-01-10 09:12:00,
2013-01-10 04:22:00,40.0,22.0,-100.00,WSW,240,7.0,11.0,48,0.00,,,-99.99,,2013-01-10 09:22:00,
2013-01-10 04:32:00,40.0,22.0,-100.00,WSW,240,7.0,11.0,48,0.00,,,-99.99,,2013-01-10 09:32:00,
2013-01-10 04:42:00,40.0,22.0,-100.00,West,265,5.0,10.0,49,0.00,,,-99.99,,2013-01-10 09:42:00,
2013-01-10 04:52:00,39.0,22.0,-100.00,West,270,8.0,10.0,51,0.00,,,-99.99,,2013-01-10 09:52:00,
2013-01-10 05:03:00,39.0,22.0,-100.00,West,270,8.0,10.0,51,0.00,,,-99.99,,2013-01-10 10:03:00,
2013-01-10 05:12:00,39.0,22.0,-100.00,East,90,3.0,4.0,51,0.00,,,-99.99,,2013-01-10 10:12:00,
2013-01-10 05:22:00,39.0,22.0,-100.00,NE,55,2.0,4.0,51,0.00,,,-99.99,,2013-01-10 10:22:00,
2013-01-10 05:32:00,39.0,22.0,-100.00,NE,55,2.0,4.0,51,0.00,,,-99.99,,2013-01-10 10:32:00,
2013-01-10 05:42:00,39.0,22.0,-100.00,ESE,105,4.0,6.0,52,0.00,,,-99.99,,2013-01-10 10:42:00,
2013-01-10 05:52:00,38.0,22.0,-100.00,NE,50,1.0,2.0,54,0.00,,,-99.99,,2013-01-10 10:52:00,
2013-01-10 06:02:00,38.0,22.0,-100.00,NE,50,1.0,2.0,54,0.00,,,-99.99,,2013-01-10 11:02:00,
2013-01-10 06:12:00,38.0,23.0,-100.00,ENE,65,4.0,7.0,55,0.00,,,-99.99,,2013-01-10 11:12:00,
2013-01-10 06:22:00,38.0,23.0,-100.00,North,10,3.0,5.0,56,0.00,,,-99.99,,2013-01-10 11:22:00,
2013-01-10 06:33:00,38.0,23.0,-100.00,North,10,3.0,5.0,56,0.00,,,-99.99,,2013-01-10 11:33:00,
2013-01-10 06:43:00,38.0,23.0,-100.00,North,350,4.0,7.0,55,0.00,,,-99.99,,2013-01-10 11:43:00,
2013-01-10 06:52:00,37.0,23.0,-100.00,WNW,285,4.0,6.0,56,0.00,,,-99.99,,2013-01-10 11:52:00,
2013-01-10 07:03:00,37.0,23.0,-100.00,WNW,285,4.0,6.0,56,0.00,,,-99.99,,2013-01-10 12:03:00,
2013-01-10 07:12:00,37.0,23.0,-100.00,WNW,300,4.0,6.0,57,0.00,,,-99.99,,2013-01-10 12:12:00,
2013-01-10 07:22:00,36.0,23.0,-100.00,NW,325,2.0,2.0,59,0.00,,,-99.99,,2013-01-10 12:22:00,
2013-01-10 07:33:00,36.0,23.0,-100.00,NW,325,2.0,2.0,59,0.00,,,-99.99,,2013-01-10 12:33:00,
2013-01-10 07:53:00,35.0,23.0,-100.00,WNW,285,1.0,2.0,63,0.00,,,-99.99,,2013-01-10 12:53:00,
2013-01-10 08:02:00,35.0,23.0,-100.00,WNW,285,1.0,2.0,63,0.00,,,-99.99,,2013-01-10 13:02:00,
2013-01-10 08:12:00,35.0,24.0,-100.00,WSW,250,1.0,2.0,65,0.00,,,-99.99,,2013-01-10 13:12:00,
2013-01-10 08:22:00,35.0,25.0,-100.00,ESE,120,0.0,0.0,65,0.00,,,-99.99,,2013-01-10 13:22:00,
2013-01-10 08:32:00,35.0,25.0,-100.00,ESE,120,0.0,0.0,65,0.00,,,-99.99,,2013-01-10 13:32:00,
2013-01-10 08:42:00,36.0,26.0,-100.00,NE,45,0.0,0.0,65,0.00,,,-99.99,,2013-01-10 13:42:00,
2013-01-10 08:52:00,38.0,26.0,-100.00,NW,325,2.0,3.0,62,0.00,,,-99.99,,2013-01-10 13:52:00,
2013-01-10 09:02:00,38.0,26.0,-100.00,NW,325,2.0,3.0,62,0.00,,,-99.99,,2013-01-10 14:02:00,
2013-01-10 09:12:00,39.0,25.0,-100.00,North,0,2.0,4.0,59,0.00,,,-99.99,,2013-01-10 14:12:00,
2013-01-10 09:22:00,39.0,25.0,-100.00,NNW,340,0.0,1.0,58,0.00,,,-99.99,,2013-01-10 14:22:00,
2013-01-10 09:33:00,39.0,25.0,-100.00,NNW,340,0.0,1.0,58,0.00,,,-99.99,,2013-01-10 14:33:00,
2013-01-10 09:53:00,41.0,25.0,-100.00,SE,145,4.0,4.0,52,0.00,,,-99.99,,2013-01-10 14:53:00,
2013-01-10 10:03:00,41.0,25.0,-100.00,SE,145,4.0,4.0,52,0.00,,,-99.99,,2013-01-10 15:03:00,
2013-01-10 10:12:00,40.0,24.0,-100.00,SE,130,2.0,3.0,52,0.00,,,-99.99,,2013-01-10 15:12:00,
2013-01-10 10:23:00,42.0,25.0,-100.00,West,260,2.0,3.0,52,0.00,,,-99.99,,2013-01-10 15:23:00,
2013-01-10 10:33:00,42.0,25.0,-100.00,West,260,2.0,3.0,52,0.00,,,-99.99,,2013-01-10 15:33:00,
2013-01-10 10:43:00,42.0,25.0,-100.00,West,260,2.0,3.0,52,0.00,,,-99.99,,2013-01-10 15:43:00,
2013-01-10 10:53:00,42.0,25.0,-100.00,West,260,2.0,3.0,52,0.00,,,-99.99,,2013-01-10 15:53:00,
2013-01-10 11:03:00,43.0,25.0,-100.00,East,95,2.0,4.0,50,0.00,,,-99.99,,2013-01-10 16:03:00,
2013-01-10 11:13:00,44.0,25.0,-100.00,South,175,2.0,2.0,48,0.00,,,-99.99,,2013-01-10 16:13:00,
2013-01-10 11:23:00,43.0,24.0,-100.00,SSE,160,1.0,2.0,48,0.00,,,-99.99,,2013-01-10 16:23:00,
2013-01-10 11:33:00,43.0,24.0,-100.00,SSE,160,1.0,2.0,48,0.00,,,-99.99,,2013-01-10 16:33:00,
2013-01-10 11:43:00,44.0,25.0,-100.00,East,80,1.0,2.0,48,0.00,,,-99.99,,2013-01-10 16:43:00,
2013-01-10 11:53:00,44.0,-7.0,-100.00,South,185,1.0,2.0,11,0.00,,,-99.99,,2013-01-10 16:53:00,
2013-01-10 12:03:00,44.0,-7.0,-100.00,South,185,1.0,2.0,11,0.00,,,-99.99,,2013-01-10 17:03:00,
2013-01-10 12:12:00,45.0,24.0,-100.00,SSE,160,2.0,3.0,44,0.00,,,-99.99,,2013-01-10 17:12:00,
2013-01-10 12:22:00,45.0,24.0,-100.00,SSE,160,2.0,3.0,44,0.00,,,-99.99,,2013-01-10 17:22:00,
2013-01-10 12:33:00,46.0,24.0,-100.00,SSW,195,1.0,2.0,43,0.00,,,-99.99,,2013-01-10 17:33:00,
2013-01-10 12:43:00,47.0,24.0,-100.00,SSE,150,1.0,2.0,41,0.00,,,-99.99,,2013-01-10 17:43:00,
2013-01-10 12:53:00,47.0,24.0,-100.00,SSE,155,2.0,3.0,41,0.00,,,-99.99,,2013-01-10 17:53:00,
2013-01-10 13:03:00,47.0,24.0,-100.00,SSE,155,2.0,3.0,41,0.00,,,-99.99,,2013-01-10 18:03:00,
2013-01-10 13:12:00,47.0,24.0,-100.00,South,190,1.0,2.0,40,0.00,,,-99.99,,2013-01-10 18:12:00,
2013-01-10 13:23:00,47.0,23.0,-100.00,West,275,3.0,4.0,39,0.00,,,-99.99,,2013-01-10 18:23:00,
2013-01-10 13:33:00,47.0,23.0,-100.00,West,275,3.0,4.0,39,0.00,,,-99.99,,2013-01-10 18:33:00,
2013-01-10 13:43:00,47.0,23.0,-100.00,South,170,1.0,2.0,39,0.00,,,-99.99,,2013-01-10 18:43:00,
2013-01-10 13:52:00,46.0,-7.0,-100.00,NE,55,1.0,4.0,10,0.00,,,-99.99,,2013-01-10 18:52:00,
2013-01-10 14:03:00,46.0,-7.0,-100.00,NE,55,1.0,4.0,10,0.00,,,-99.99,,2013-01-10 19:03:00,
2013-01-10 14:13:00,47.0,24.0,-100.00,South,170,0.0,0.0,41,0.00,,,-99.99,,2013-01-10 19:13:00,
2013-01-10 14:23:00,47.0,23.0,-100.00,ESE,110,2.0,3.0,39,0.00,,,-99.99,,2013-01-10 19:23:00,
2013-01-10 14:33:00,47.0,23.0,-100.00,ESE,110,2.0,3.0,39,0.00,,,-99.99,,2013-01-10 19:33:00,
2013-01-10 14:43:00,47.0,23.0,-100.00,NE,55,0.0,0.0,38,0.00,,,-99.99,,2013-01-10 19:43:00,
2013-01-10 14:53:00,47.0,22.0,-100.00,SE,140,1.0,2.0,38,0.00,,,-99.99,,2013-01-10 19:53:00,
2013-01-10 15:03:00,47.0,22.0,-100.00,SE,140,1.0,2.0,38,0.00,,,-99.99,,2013-01-10 20:03:00,
2013-01-10 15:13:00,47.0,22.0,-100.00,SE,145,1.0,2.0,37,0.00,,,-99.99,,2013-01-10 20:13:00,
2013-01-10 15:24:00,48.0,22.0,-100.00,NE,35,2.0,2.0,37,0.00,,,-99.99,,2013-01-10 20:24:00,
2013-01-10 15:33:00,48.0,22.0,-100.00,NE,35,2.0,2.0,37,0.00,,,-99.99,,2013-01-10 20:33:00,
2013-01-10 15:43:00,48.0,23.0,-100.00,North,10,1.0,2.0,37,0.00,,,-99.99,,2013-01-10 20:43:00,
2013-01-10 15:53:00,48.0,23.0,-100.00,East,85,2.0,4.0,37,0.00,,,-99.99,,2013-01-10 20:53:00,
2013-01-10 16:04:00,48.0,23.0,-100.00,East,85,2.0,4.0,37,0.00,,,-99.99,,2013-01-10 21:04:00,
2013-01-10 16:12:00,47.0,22.0,-100.00,East,100,3.0,5.0,37,0.00,,,-99.99,,2013-01-10 21:12:00,
2013-01-10 16:23:00,47.0,22.0,-100.00,SE,125,2.0,3.0,38,0.00,,,-99.99,,2013-01-10 21:23:00,
2013-01-10 16:33:00,47.0,22.0,-100.00,SE,125,2.0,3.0,38,0.00,,,-99.99,,2013-01-10 21:33:00,
2013-01-10 16:42:00,47.0,22.0,-100.00,SE,135,2.0,2.0,38,0.00,,,-99.99,,2013-01-10 21:42:00,
2013-01-10 16:53:00,46.0,22.0,-100.00,SE,125,0.0,1.0,39,0.00,,,-99.99,,2013-01-10 21:53:00,
2013-01-10 17:04:00,46.0,22.0,-100.00,SE,125,0.0,1.0,39,0.00,,,-99.99,,2013-01-10 22:04:00,
2013-01-10 17:12:00,45.0,22.0,-100.00,WNW,290,0.0,0.0,40,0.00,,,-99.99,,2013-01-10 22:12:00,
2013-01-10 17:26:00,45.0,23.0,-100.00,West,270,0.0,0.0,42,0.00,,,-99.99,,2013-01-10 22:26:00,
2013-01-10 17:33:00,45.0,23.0,-100.00,West,270,0.0,0.0,42,0.00,,,-99.99,,2013-01-10 22:33:00,
2013-01-10 17:43:00,44.0,23.0,-100.00,NW,325,0.0,0.0,44,0.00,,,-99.99,,2013-01-10 22:43:00,
2013-01-10 18:03:00,44.0,23.0,-100.00,West,260,2.0,2.0,43,0.00,,,-99.99,,2013-01-10 23:03:00,
2013-01-10 18:13:00,44.0,23.0,-100.00,NW,325,1.0,2.0,43,0.00,,,-99.99,,2013-01-10 23:13:00,
2013-01-10 18:23:00,44.0,22.0,-100.00,North,5,0.0,1.0,43,0.00,,,-99.99,,2013-01-10 23:23:00,
2013-01-10 18:33:00,44.0,22.0,-100.00,North,5,0.0,1.0,43,0.00,,,-99.99,,2013-01-10 23:33:00,
2013-01-10 18:43:00,44.0,22.0,-100.00,East,100,1.0,2.0,43,0.00,,,-99.99,,2013-01-10 23:43:00,
2013-01-10 18:53:00,43.0,24.0,-100.00,ESE,110,1.0,2.0,47,0.00,,,-99.99,,2013-01-10 23:53:00,
2013-01-10 19:03:00,43.0,24.0,-100.00,ESE,110,1.0,2.0,47,0.00,,,-99.99,,2013-01-11 00:03:00,
2013-01-10 19:13:00,42.0,23.0,-100.00,East,80,1.0,2.0,47,0.00,,,-99.99,,2013-01-11 00:13:00,
2013-01-10 19:23:00,42.0,24.0,-100.00,NNE,25,1.0,1.0,49,0.00,,,-99.99,,2013-01-11 00:23:00,
2013-01-10 19:33:00,42.0,24.0,-100.00,NNE,25,1.0,1.0,49,0.00,,,-99.99,,2013-01-11 00:33:00,
2013-01-10 19:43:00,41.0,24.0,-100.00,NE,40,0.0,1.0,50,0.00,,,-99.99,,2013-01-11 00:43:00,
2013-01-10 19:52:00,41.0,24.0,-100.00,East,85,1.0,2.0,51,0.00,,,-99.99,,2013-01-11 00:52:00,
2013-01-10 20:03:00,41.0,24.0,-100.00,East,85,1.0,2.0,51,0.00,,,-99.99,,2013-01-11 01:03:00,
2013-01-10 20:13:00,41.0,24.0,-100.00,WNW,290,0.0,0.0,51,0.00,,,-99.99,,2013-01-11 01:13:00,
2013-01-10 20:23:00,41.0,24.0,-100.00,East,90,2.0,2.0,52,0.00,,,-99.99,,2013-01-11 01:23:00,
2013-01-10 20:34:00,41.0,24.0,-100.00,East,90,2.0,2.0,52,0.00,,,-99.99,,2013-01-11 01:34:00,
2013-01-10 20:43:00,41.0,24.0,-100.00,ENE,65,0.0,0.0,51,0.00,,,-99.99,,2013-01-11 01:43:00,
2013-01-10 20:53:00,41.0,23.0,-100.00,East,80,2.0,3.0,49,0.00,,,-99.99,,2013-01-11 01:53:00,
2013-01-10 21:03:00,41.0,23.0,-100.00,East,80,2.0,3.0,49,0.00,,,-99.99,,2013-01-11 02:03:00,
2013-01-10 21:13:00,41.0,23.0,-100.00,NE,40,2.0,4.0,49,0.00,,,-99.99,,2013-01-11 02:13:00,
2013-01-10 21:23:00,41.0,23.0,-100.00,ENE,65,1.0,2.0,49,0.00,,,-99.99,,2013-01-11 02:23:00,
2013-01-10 21:33:00,41.0,23.0,-100.00,ENE,65,1.0,2.0,49,0.00,,,-99.99,,2013-01-11 02:33:00,
2013-01-10 21:43:00,41.0,23.0,-100.00,NE,35,1.0,2.0,49,0.00,,,-99.99,,2013-01-11 02:43:00,
2013-01-10 21:53:00,41.0,23.0,-100.00,ENE,65,0.0,1.0,48,0.00,,,-99.99,,2013-01-11 02:53:00,
2013-01-10 22:03:00,41.0,23.0,-100.00,ENE,65,0.0,1.0,48,0.00,,,-99.99,,2013-01-11 03:03:00,
2013-01-10 22:23:00,41.0,23.0,-100.00,ENE,65,2.0,2.0,48,0.00,,,-99.99,,2013-01-11 03:23:00,
2013-01-10 22:33:00,41.0,23.0,-100.00,ENE,65,2.0,2.0,48,0.00,,,-99.99,,2013-01-11 03:33:00,
2013-01-10 22:53:00,40.0,23.0,-100.00,ENE,70,2.0,3.0,50,0.00,,,-99.99,,2013-01-11 03:53:00,
2013-01-10 23:02:00,40.0,23.0,-100.00,ENE,70,2.0,3.0,50,0.00,,,-99.99,,2013-01-11 04:02:00,
2013-01-10 23:12:00,40.0,23.0,-100.00,East,85,1.0,1.0,51,0.00,,,-99.99,,2013-01-11 04:12:00,
2013-01-10 23:22:00,40.0,23.0,-100.00,East,80,1.0,2.0,51,0.00,,,-99.99,,2013-01-11 04:22:00,
2013-01-10 23:33:00,40.0,23.0,-100.00,East,80,1.0,2.0,51,0.00,,,-99.99,,2013-01-11 04:33:00,
2013-01-10 23:43:00,40.0,23.0,-100.00,East,80,0.0,1.0,51,0.00,,,-99.99,,2013-01-11 04:43:00,
2013-01-10 23:52:00,40.0,23.0,-100.00,NE,55,1.0,2.0,51,0.00,,,-99.99,,2013-01-11 04:52:00,